Time;durP1;ratioP1;P1;durP2;ratioP2;P2;SDS_P1;SDS_P2;PMS_P1;PMS_P2;Temp;Humidity;BMP_temperature;BMP_pressure;BME280_temperature;BME280_humidity;BME280_pressure;Samples;Min_cycle;Max_cycle;Signal;HPM_P1;HPM_P2
2022/12/03 00:02:00;;;;;;;33.28;14.27;;;;;;;5.91;58.76;102590.19;5052383;28;20033;-48
2022/12/03 00:04:26;;;;;;;35.42;14.98;;;;;;;5.91;58.61;102584.09;5053421;28;20466;-44
2022/12/03 00:06:51;;;;;;;38.30;15.20;;;;;;;6.20;58.41;102593.56;5053137;28;20523;-46
2022/12/03 00:09:16;;;;;;;37.95;15.18;;;;;;;5.78;59.46;102585.03;5052957;28;20053;-46
2022/12/03 00:11:42;;;;;;;36.75;14.85;;;;;;;5.98;58.71;102583.63;5052228;28;20094;-45
2022/12/03 00:14:07;;;;;;;36.22;15.45;;;;;;;6.12;58.36;102582.75;5052460;28;20032;-47
2022/12/03 00:16:32;;;;;;;36.92;15.63;;;;;;;5.89;58.58;102583.09;5052400;28;20108;-44
2022/12/03 00:18:58;;;;;;;36.88;14.35;;;;;;;5.96;59.36;102582.69;5052606;28;20393;-44
2022/12/03 00:21:23;;;;;;;35.55;14.48;;;;;;;6.04;58.69;102584.00;5052150;28;20029;-43
2022/12/03 00:23:48;;;;;;;30.10;13.20;;;;;;;5.93;58.71;102579.88;5051975;28;20021;-42
2022/12/03 00:26:14;;;;;;;33.90;14.75;;;;;;;5.87;58.48;102575.25;5052295;28;20503;-44
2022/12/03 00:28:39;;;;;;;32.60;14.00;;;;;;;6.09;58.40;102575.72;5052600;28;20033;-44
2022/12/03 00:31:04;;;;;;;34.58;14.80;;;;;;;6.03;58.33;102567.59;5051787;28;20103;-46
2022/12/03 00:33:30;;;;;;;33.05;14.38;;;;;;;6.02;58.58;102567.50;5052828;28;20017;-44
2022/12/03 00:35:55;;;;;;;29.60;13.57;;;;;;;5.68;59.43;102562.88;5053777;28;20480;-44
2022/12/03 00:38:21;;;;;;;31.50;14.30;;;;;;;5.85;58.83;102560.41;5055029;28;20025;-46
2022/12/03 00:40:46;;;;;;;33.33;14.00;;;;;;;6.09;58.61;102556.72;5054926;28;20551;-44
2022/12/03 00:43:11;;;;;;;32.47;13.88;;;;;;;6.30;58.50;102567.38;5053611;28;20432;-46
2022/12/03 00:45:36;;;;;;;31.73;13.55;;;;;;;5.92;59.12;102560.88;5052110;28;20024;-44
2022/12/03 00:48:02;;;;;;;31.50;14.13;;;;;;;5.95;59.03;102563.66;5051732;28;20029;-43
2022/12/03 00:50:27;;;;;;;32.47;14.55;;;;;;;5.94;59.48;102569.63;5051199;28;20025;-43
2022/12/03 00:52:52;;;;;;;33.83;14.48;;;;;;;5.80;59.74;102564.41;5051734;28;20152;-42
2022/12/03 00:55:18;;;;;;;35.35;14.68;;;;;;;5.73;59.49;102569.22;5051361;28;20446;-45
2022/12/03 00:57:43;;;;;;;34.20;14.77;;;;;;;5.95;59.37;102568.84;5052033;28;20029;-43
2022/12/03 01:00:09;;;;;;;34.80;14.68;;;;;;;5.83;59.08;102569.78;5051718;28;20044;-42
2022/12/03 01:02:34;;;;;;;35.25;15.15;;;;;;;6.11;59.02;102562.84;5051035;28;20497;-44
2022/12/03 01:05:00;;;;;;;33.85;14.65;;;;;;;5.70;60.01;102568.16;5051132;28;20056;-44
2022/12/03 01:07:25;;;;;;;35.75;14.80;;;;;;;5.97;59.93;102562.06;5051043;28;20103;-42
2022/12/03 01:09:51;;;;;;;33.50;14.40;;;;;;;6.05;59.38;102554.72;5051165;28;20025;-46
2022/12/03 01:12:16;;;;;;;36.42;15.15;;;;;;;5.90;59.18;102559.03;5050541;28;20062;-45
2022/12/03 01:14:41;;;;;;;32.33;13.80;;;;;;;5.68;60.02;102551.63;5050860;28;20026;-44
2022/12/03 01:17:07;;;;;;;35.05;14.82;;;;;;;5.95;59.54;102548.13;5051156;28;20021;-46
2022/12/03 01:19:34;;;;;;;33.08;13.35;;;;;;;6.08;58.74;102540.28;5052477;28;20028;-44
2022/12/03 01:21:59;;;;;;;32.20;13.55;;;;;;;6.05;58.70;102553.03;5054096;28;20050;-48
2022/12/03 01:24:25;;;;;;;31.33;14.27;;;;;;;5.97;59.22;102538.78;5054373;28;20024;-44
2022/12/03 01:26:50;;;;;;;32.20;14.00;;;;;;;5.61;59.93;102541.75;5051330;28;20024;-45
2022/12/03 01:29:15;;;;;;;33.90;13.38;;;;;;;6.17;58.86;102542.47;5054356;28;20032;-47
2022/12/03 01:34:25;;;;;;;29.75;12.93;;;;;;;6.25;58.80;102538.66;5057815;28;20079;-44
2022/12/03 01:36:51;;;;;;;34.10;14.25;;;;;;;5.96;59.36;102546.44;5056142;28;20025;-43
2022/12/03 01:39:17;;;;;;;29.65;13.55;;;;;;;6.01;59.67;102542.41;5054852;28;20037;-44
2022/12/03 01:41:43;;;;;;;32.33;13.50;;;;;;;6.02;59.56;102539.03;5051757;28;20029;-48
2022/12/03 01:44:20;;;;;;;32.85;13.15;;;;;;;6.39;58.63;102542.03;5051024;28;20436;-44
2022/12/03 01:46:46;;;;;;;28.90;12.93;;;;;;;6.01;59.70;102538.13;5050871;28;20078;-43
2022/12/03 01:49:18;;;;;;;32.58;13.77;;;;;;;6.06;59.15;102530.63;5050406;28;20035;-43
2022/12/03 01:51:45;;;;;;;34.67;13.85;;;;;;;5.93;59.35;102526.44;5050205;28;20036;-45
2022/12/03 01:54:16;;;;;;;32.72;14.00;;;;;;;5.69;60.01;102527.53;5050215;28;20551;-46
2022/12/03 01:56:42;;;;;;;33.85;14.52;;;;;;;5.70;60.61;102535.41;5050458;28;20028;-43
2022/12/03 01:59:12;;;;;;;31.88;13.82;;;;;;;5.68;60.74;102529.22;5049152;28;20028;-43
2022/12/03 02:01:37;;;;;;;35.75;13.73;;;;;;;6.08;59.87;102531.63;5048600;28;20535;-45
2022/12/03 02:04:03;;;;;;;34.30;13.95;;;;;;;6.14;59.95;102528.47;5050569;28;20029;-44
2022/12/03 02:06:29;;;;;;;32.47;13.93;;;;;;;6.04;59.70;102527.03;5050408;28;20100;-44
2022/12/03 02:08:58;;;;;;;33.80;13.90;;;;;;;6.15;59.35;102517.31;5050068;28;20036;-44
2022/12/03 02:11:34;;;;;;;31.75;14.05;;;;;;;6.31;58.98;102531.22;5049634;28;20443;-43
2022/12/03 02:14:05;;;;;;;34.88;14.10;;;;;;;6.15;59.58;102531.16;5050101;28;20036;-45
2022/12/03 02:16:31;;;;;;;33.53;13.57;;;;;;;6.30;59.29;102531.13;5050529;28;20028;-44
2022/12/03 02:18:57;;;;;;;33.50;14.05;;;;;;;6.21;59.52;102534.09;5050437;28;20033;-48
2022/12/03 02:21:33;;;;;;;32.20;13.77;;;;;;;6.25;59.58;102533.47;5050280;28;20450;-50
2022/12/03 02:24:23;;;;;;;35.17;13.80;;;;;;;5.90;60.31;102530.53;5051451;28;20020;-48
2022/12/03 02:26:49;;;;;;;33.08;14.00;;;;;;;5.96;60.28;102528.31;5051510;28;20025;-43
2022/12/03 02:29:14;;;;;;;31.33;13.63;;;;;;;5.87;60.38;102532.91;5050554;28;20393;-48
2022/12/03 02:31:41;;;;;;;33.85;13.77;;;;;;;5.85;60.29;102531.94;5049492;28;20077;-45
2022/12/03 02:34:07;;;;;;;30.48;12.82;;;;;;;5.73;60.78;102525.22;5050131;28;20098;-45
2022/12/03 02:36:34;;;;;;;32.75;14.32;;;;;;;6.17;60.14;102526.06;5050842;28;20431;-43
2022/12/03 02:39:00;;;;;;;35.20;14.27;;;;;;;6.30;59.63;102529.44;5050593;28;20052;-45
2022/12/03 02:44:10;;;;;;;31.98;13.82;;;;;;;5.91;60.48;102520.28;5050261;28;20051;-45
2022/12/03 02:46:36;;;;;;;31.92;13.55;;;;;;;5.88;60.62;102519.19;5051940;28;20024;-44
2022/12/03 02:49:04;;;;;;;31.63;13.40;;;;;;;6.22;60.01;102520.31;5053131;28;20397;-44
2022/12/03 02:51:30;;;;;;;34.20;13.93;;;;;;;5.67;61.09;102513.66;5052627;28;20052;-46
2022/12/03 02:53:56;;;;;;;32.15;14.40;;;;;;;5.97;60.45;102510.28;5050693;28;20453;-44
2022/12/03 02:56:28;;;;;;;33.40;13.77;;;;;;;6.44;59.54;102507.81;5049081;28;20381;-46
2022/12/03 02:58:57;;;;;;;29.33;13.43;;;;;;;6.12;60.10;102507.66;5048733;28;20545;-44
2022/12/03 03:01:22;;;;;;;31.40;13.45;;;;;;;6.14;60.06;102500.91;5049205;28;20025;-47
2022/12/03 03:03:49;;;;;;;31.58;13.60;;;;;;;6.06;60.04;102502.13;5050685;28;20379;-43
2022/12/03 03:06:17;;;;;;;31.48;13.70;;;;;;;5.82;61.06;102499.00;5049982;28;20044;-44
2022/12/03 03:08:43;;;;;;;31.77;13.73;;;;;;;6.42;59.43;102495.56;5049867;28;20040;-45
2022/12/03 03:13:52;;;;;;;29.95;13.00;;;;;;;6.02;60.23;102495.00;5028539;28;20041;-43
2022/12/03 03:16:17;;;;;;;32.03;13.65;;;;;;;6.09;60.56;102487.69;5030119;28;20040;-43
2022/12/03 03:18:42;;;;;;;31.50;13.75;;;;;;;5.77;61.26;102491.78;5031079;28;20085;-43
2022/12/03 03:21:08;;;;;;;32.20;13.40;;;;;;;6.17;60.37;102493.28;5029933;28;20017;-42
2022/12/03 03:23:33;;;;;;;28.83;12.80;;;;;;;6.09;60.52;102487.69;5030704;28;20101;-41
2022/12/03 03:26:04;;;;;;;31.77;13.75;;;;;;;6.09;60.03;102487.69;5031805;28;20025;-42
2022/12/03 03:28:30;;;;;;;30.58;13.75;;;;;;;6.14;60.31;102495.72;5030762;28;20465;-42
2022/12/03 03:30:58;;;;;;;30.80;13.98;;;;;;;6.49;59.70;102487.31;5030908;28;20427;-42
2022/12/03 03:33:24;;;;;;;32.35;13.85;;;;;;;6.14;60.61;102494.81;5030538;28;20056;-40
2022/12/03 03:35:49;;;;;;;32.35;13.93;;;;;;;6.30;60.40;102487.09;5029384;28;20060;-40
2022/12/03 03:38:19;;;;;;;29.60;13.43;;;;;;;6.06;61.29;102481.44;5029931;28;20029;-41
2022/12/03 03:40:46;;;;;;;29.20;13.13;;;;;;;5.77;61.45;102484.00;5029772;28;20096;-43
2022/12/03 03:43:12;;;;;;;30.50;13.27;;;;;;;6.09;60.60;102477.34;5033935;28;20048;-41
2022/12/03 03:45:38;;;;;;;29.15;12.65;;;;;;;6.46;60.39;102476.81;5034628;28;20453;-41
2022/12/03 03:48:03;;;;;;;34.83;13.88;;;;;;;6.23;60.63;102480.69;5033035;28;20029;-43
2022/12/03 03:50:30;;;;;;;29.92;12.90;;;;;;;6.42;60.20;102478.31;5033041;28;20029;-45
2022/12/03 03:52:57;;;;;;;29.23;13.30;;;;;;;6.43;60.00;102485.28;5032767;28;20035;-42
2022/12/03 03:55:23;;;;;;;29.67;13.60;;;;;;;6.56;60.19;102483.38;5033083;28;20033;-44
2022/12/03 03:57:49;;;;;;;31.05;13.20;;;;;;;6.47;60.17;102479.47;5033728;28;20047;-42
2022/12/03 04:00:15;;;;;;;30.73;13.20;;;;;;;6.28;60.63;102478.38;5034062;28;20017;-40
2022/12/03 04:02:41;;;;;;;31.77;13.23;;;;;;;6.38;60.75;102473.78;5032986;28;20025;-41
2022/12/03 04:05:20;;;;;;;32.63;13.15;;;;;;;6.31;60.86;102470.75;5032968;28;20075;-43
2022/12/03 04:07:45;;;;;;;32.03;13.48;;;;;;;6.21;61.12;102466.78;5032238;28;20382;-44
2022/12/03 04:12:56;;;;;;;30.90;12.98;;;;;;;6.44;60.77;102461.16;5032211;28;20594;-46
2022/12/03 04:15:23;;;;;;;34.58;13.70;;;;;;;6.46;60.58;102454.34;5032172;28;20025;-45
2022/12/03 04:18:41;;;;;;;30.67;13.13;;;;;;;6.79;60.34;102459.59;5033203;28;20056;-42
2022/12/03 04:20:33;;;;;;;31.50;13.45;;;;;;;6.68;59.63;102453.84;5031706;28;20029;-42
2022/12/03 04:22:59;;;;;;;31.52;13.95;;;;;;;6.31;60.66;102458.69;5031917;28;20049;-42
2022/12/03 04:30:52;;;;;;;28.83;12.65;;;;;;;6.49;60.46;102451.06;5031542;28;20121;-43
2022/12/03 04:36:01;;;;;;;31.58;13.45;;;;;;;6.86;59.72;102438.38;5031852;28;20573;-42
2022/12/03 04:38:26;;;;;;;30.40;13.32;;;;;;;6.82;60.26;102439.94;5031881;28;20116;-42
2022/12/03 04:41:02;;;;;;;32.95;13.35;;;;;;;6.83;59.69;102433.91;5031515;28;20025;-42
2022/12/03 04:43:30;;;;;;;31.98;13.88;;;;;;;6.57;60.21;102435.94;5031681;28;20025;-45
2022/12/03 04:45:55;;;;;;;30.00;13.60;;;;;;;6.28;61.06;102434.34;5031746;28;20029;-42
2022/12/03 04:48:20;;;;;;;34.50;13.60;;;;;;;6.77;60.23;102435.31;5031328;28;20440;-42
2022/12/03 04:50:45;;;;;;;33.08;13.63;;;;;;;6.37;60.94;102438.31;5031517;28;20179;-41
2022/12/03 04:53:11;;;;;;;32.33;13.32;;;;;;;6.73;60.56;102435.94;5031435;28;20108;-42
2022/12/03 04:55:36;;;;;;;34.80;14.23;;;;;;;6.32;61.15;102433.69;5032087;28;20087;-41
2022/12/03 04:58:01;;;;;;;34.03;14.60;;;;;;;6.68;60.56;102432.22;5034121;28;20025;-41
2022/12/03 05:00:27;;;;;;;34.38;15.90;;;;;;;6.78;60.49;102424.13;5032157;28;20468;-44
2022/12/03 05:02:52;;;;;;;33.22;14.38;;;;;;;6.64;60.33;102433.75;5031708;28;20067;-40
2022/12/03 05:05:17;;;;;;;31.33;13.93;;;;;;;6.41;61.40;102427.31;5033938;28;20013;-42
2022/12/03 05:07:43;;;;;;;33.75;14.48;;;;;;;6.51;61.21;102433.91;5033734;28;20488;-41
2022/12/03 05:10:10;;;;;;;33.33;14.40;;;;;;;6.78;60.50;102429.28;5031570;28;20045;-43
2022/12/03 05:12:35;;;;;;;34.13;14.13;;;;;;;6.13;62.52;102428.28;5031191;28;20104;-44
2022/12/03 05:15:01;;;;;;;32.03;14.27;;;;;;;6.28;62.11;102424.00;5031157;28;20075;-42
2022/12/03 05:17:26;;;;;;;33.60;14.25;;;;;;;6.71;60.95;102420.31;5031018;28;20121;-42
2022/12/03 05:22:35;;;;;;;36.70;15.07;;;;;;;6.49;61.37;102418.25;5030684;28;20028;-42
2022/12/03 05:25:01;;;;;;;30.40;14.15;;;;;;;6.63;61.20;102416.44;5030892;28;20104;-42
2022/12/03 05:27:26;;;;;;;37.75;15.90;;;;;;;6.58;61.08;102424.75;5031186;28;20472;-42
2022/12/03 05:29:51;;;;;;;35.00;14.98;;;;;;;6.62;61.20;102424.13;5030932;28;20075;-42
2022/12/03 05:32:17;;;;;;;37.92;15.57;;;;;;;6.48;61.26;102420.75;5030386;28;20116;-44
2022/12/03 05:34:43;;;;;;;35.78;15.48;;;;;;;6.41;61.36;102419.53;5030793;28;20022;-40
2022/12/03 05:37:08;;;;;;;34.00;14.93;;;;;;;6.79;60.11;102405.16;5030420;28;20052;-41
2022/12/03 05:39:33;;;;;;;35.75;15.98;;;;;;;6.81;59.86;102401.84;5030471;28;20025;-42
2022/12/03 05:44:42;;;;;;;34.88;14.88;;;;;;;6.26;61.72;102407.47;5030415;28;20503;-42
2022/12/03 05:47:08;;;;;;;34.60;15.65;;;;;;;6.45;60.95;102408.56;5030353;28;20029;-42
2022/12/03 05:49:33;;;;;;;36.92;15.23;;;;;;;6.50;60.75;102409.69;5030161;28;20056;-42
2022/12/03 05:51:58;;;;;;;36.30;15.23;;;;;;;6.68;60.26;102407.19;5029968;28;20094;-43
2022/12/03 05:54:23;;;;;;;38.83;14.88;;;;;;;6.58;60.63;102402.34;5030146;28;20478;-43
2022/12/03 05:56:49;;;;;;;32.72;15.30;;;;;;;6.65;60.58;102396.66;5030527;28;20508;-41
2022/12/03 05:59:14;;;;;;;32.60;15.13;;;;;;;6.20;61.14;102397.66;5030188;28;20060;-46
2022/12/03 06:01:39;;;;;;;34.42;15.07;;;;;;;6.41;61.05;102401.41;5029567;28;20435;-40
2022/12/03 06:04:04;;;;;;;34.53;15.18;;;;;;;6.47;60.77;102401.75;5029845;28;20025;-43
2022/12/03 06:06:30;;;;;;;36.42;15.52;;;;;;;6.76;60.26;102389.47;5030442;28;20104;-42
2022/12/03 06:08:55;;;;;;;35.22;15.60;;;;;;;6.77;59.65;102391.25;5029940;28;20052;-43
2022/12/03 06:11:20;;;;;;;34.92;14.85;;;;;;;7.07;59.09;102390.25;5029797;28;20396;-42
2022/12/03 06:13:46;;;;;;;35.53;15.60;;;;;;;6.60;60.51;102384.25;5030215;28;20063;-40
2022/12/03 06:16:11;;;;;;;35.40;15.65;;;;;;;6.75;60.35;102385.97;5030228;28;20033;-43
2022/12/03 06:18:36;;;;;;;34.08;15.52;;;;;;;6.53;60.41;102391.69;5030291;28;20021;-42
2022/12/03 06:21:01;;;;;;;37.08;15.70;;;;;;;6.57;61.03;102385.00;5029556;28;20516;-43
2022/12/03 06:23:27;;;;;;;35.28;15.65;;;;;;;6.71;60.05;102386.59;5029891;28;20045;-43
2022/12/03 06:25:52;;;;;;;35.60;15.93;;;;;;;6.81;59.50;102382.81;5030173;28;20532;-42
2022/12/03 06:28:17;;;;;;;35.35;15.68;;;;;;;6.56;60.41;102383.22;5030062;28;20061;-45
2022/12/03 06:30:43;;;;;;;36.85;15.77;;;;;;;6.67;59.98;102382.09;5029653;28;20049;-42
2022/12/03 06:33:08;;;;;;;35.80;15.48;;;;;;;6.46;60.67;102373.19;5029650;28;20389;-44
2022/12/03 06:35:34;;;;;;;37.50;16.60;;;;;;;6.98;59.58;102373.31;5029914;28;20408;-42
2022/12/03 06:37:59;;;;;;;36.33;16.10;;;;;;;6.89;59.62;102372.03;5030875;28;20029;-42
2022/12/03 06:40:25;;;;;;;40.47;15.63;;;;;;;6.98;59.57;102375.91;5031149;28;20029;-41
2022/12/03 06:42:51;;;;;;;36.45;16.15;;;;;;;6.88;59.56;102374.56;5031595;28;20056;-42
2022/12/03 06:45:16;;;;;;;38.03;15.98;;;;;;;6.55;60.26;102376.25;5031163;28;20552;-42
2022/12/03 06:47:41;;;;;;;35.35;16.05;;;;;;;6.33;60.56;102369.03;5032701;28;20025;-42
2022/12/03 06:50:07;;;;;;;36.67;15.85;;;;;;;6.78;59.92;102364.50;5028492;28;20341;-48
2022/12/03 06:52:33;;;;;;;35.90;16.00;;;;;;;6.83;59.50;102363.06;5030328;28;20095;-43
2022/12/03 06:54:58;;;;;;;35.28;16.00;;;;;;;6.33;60.42;102370.72;5031161;28;20027;-41
2022/12/03 06:57:24;;;;;;;36.47;15.93;;;;;;;6.59;59.75;102375.59;5031191;28;20470;-43
2022/12/03 06:59:49;;;;;;;38.83;15.77;;;;;;;6.44;59.89;102367.00;5030396;28;20112;-41
2022/12/03 07:02:14;;;;;;;36.67;16.55;;;;;;;6.62;60.06;102377.47;5030879;28;20024;-42
2022/12/03 07:04:40;;;;;;;34.70;15.88;;;;;;;6.52;60.15;102378.69;5029478;28;20030;-45
2022/12/03 07:07:05;;;;;;;36.45;16.70;;;;;;;6.79;59.39;102379.25;5029811;28;20025;-42
2022/12/03 07:09:30;;;;;;;36.55;15.98;;;;;;;6.79;59.48;102377.53;5029510;28;20025;-40
2022/12/03 07:11:55;;;;;;;33.85;15.38;;;;;;;6.73;59.55;102371.16;5028899;28;20040;-42
2022/12/03 07:14:21;;;;;;;39.45;16.42;;;;;;;6.30;60.21;102386.09;5029458;28;20040;-43
2022/12/03 07:16:46;;;;;;;36.42;16.48;;;;;;;6.46;60.25;102397.34;5029703;28;20036;-44
2022/12/03 07:19:12;;;;;;;38.15;15.70;;;;;;;6.46;59.87;102376.63;5034306;28;20108;-43
2022/12/03 07:21:37;;;;;;;35.25;15.38;;;;;;;6.75;58.91;102382.50;5034181;28;20036;-43
2022/12/03 07:24:03;;;;;;;36.85;15.07;;;;;;;6.62;59.20;102390.44;5034361;28;20337;-43
2022/12/03 07:26:28;;;;;;;34.47;15.65;;;;;;;6.56;59.65;102383.22;5035086;28;20017;-41
2022/12/03 07:28:54;;;;;;;36.15;15.45;;;;;;;6.76;59.33;102387.78;5035017;28;20152;-42
2022/12/03 07:31:19;;;;;;;34.72;15.45;;;;;;;6.68;59.31;102381.28;5032769;28;20025;-43
2022/12/03 07:33:44;;;;;;;35.72;16.00;;;;;;;6.77;59.32;102381.75;5034416;28;20021;-42
2022/12/03 07:36:10;;;;;;;36.28;16.58;;;;;;;6.60;59.71;102385.16;5034556;28;20040;-42
2022/12/03 07:38:35;;;;;;;35.55;15.63;;;;;;;6.50;59.77;102380.28;5034585;28;20021;-42
2022/12/03 07:41:00;;;;;;;33.35;15.27;;;;;;;6.56;59.95;102384.91;5034399;28;20021;-40
2022/12/03 07:43:26;;;;;;;34.55;15.82;;;;;;;6.26;59.95;102379.88;5034063;28;20494;-43
2022/12/03 07:45:51;;;;;;;37.08;15.70;;;;;;;6.36;59.81;102386.41;5033700;28;20478;-41
2022/12/03 07:48:16;;;;;;;40.47;16.67;;;;;;;6.53;60.07;102390.81;5034084;28;20047;-43
2022/12/03 07:50:41;;;;;;;38.83;16.58;;;;;;;6.73;59.44;102386.69;5032963;28;20029;-43
2022/12/03 07:53:07;;;;;;;37.85;16.40;;;;;;;6.92;58.96;102390.34;5032866;28;20052;-40
2022/12/03 07:55:32;;;;;;;36.25;16.60;;;;;;;6.92;58.84;102384.25;5032001;28;20036;-43
2022/12/03 07:57:57;;;;;;;38.78;16.85;;;;;;;6.47;60.03;102388.78;5032961;28;20087;-42
2022/12/03 08:00:23;;;;;;;39.97;17.23;;;;;;;6.66;59.82;102384.59;5032588;28;20022;-46
2022/12/03 08:02:48;;;;;;;41.00;17.95;;;;;;;6.25;60.27;102380.66;5033190;28;20462;-43
2022/12/03 08:05:13;;;;;;;43.33;17.00;;;;;;;6.66;60.11;102380.28;5032569;28;20100;-41
2022/12/03 08:07:38;;;;;;;40.50;17.38;;;;;;;6.36;60.24;102384.72;5032530;28;20041;-44
2022/12/03 08:10:05;;;;;;;41.47;18.00;;;;;;;6.48;60.30;102379.31;5031076;28;20367;-42
2022/12/03 08:12:46;;;;;;;39.85;17.67;;;;;;;6.93;59.03;102379.16;5009837;28;20061;-46
2022/12/03 08:15:20;;;;;;;39.53;17.55;;;;;;;6.42;60.25;102385.06;5032336;28;20029;-42
2022/12/03 08:17:50;;;;;;;40.05;16.95;;;;;;;6.83;59.54;102388.97;5032180;28;20071;-43
2022/12/03 08:20:21;;;;;;;43.45;18.30;;;;;;;6.71;59.25;102381.41;5032188;28;20390;-41
2022/12/03 08:22:50;;;;;;;39.78;17.70;;;;;;;6.89;59.19;102378.94;5032128;28;20549;-42
2022/12/03 08:25:28;;;;;;;41.40;17.73;;;;;;;6.71;59.91;102386.59;5032294;28;20052;-42
2022/12/03 08:28:10;;;;;;;41.17;18.25;;;;;;;6.55;59.95;102386.63;5031977;28;20101;-43
2022/12/03 08:30:36;;;;;;;44.00;17.38;;;;;;;6.53;59.90;102380.44;5031482;28;20025;-43
2022/12/03 08:33:12;;;;;;;39.70;17.20;;;;;;;6.67;59.43;102381.19;5031824;28;20087;-42
2022/12/03 08:35:37;;;;;;;40.97;18.58;;;;;;;6.43;59.49;102373.91;5032027;28;20035;-42
2022/12/03 08:38:11;;;;;;;42.42;18.38;;;;;;;6.39;59.80;102371.97;5032261;28;20026;-43
2022/12/03 08:40:45;;;;;;;43.28;18.70;;;;;;;6.51;59.66;102372.63;5034135;28;20272;-42
2022/12/03 08:43:23;;;;;;;38.15;17.63;;;;;;;6.49;59.41;102365.56;5034614;28;20029;-42
2022/12/03 08:45:53;;;;;;;40.60;18.58;;;;;;;6.69;59.02;102364.91;5031881;28;20060;-44
2022/12/03 08:48:25;;;;;;;42.90;19.38;;;;;;;6.41;58.96;102365.13;5033601;28;20460;-42
2022/12/03 08:50:54;;;;;;;41.92;18.65;;;;;;;6.50;58.98;102356.97;5033742;28;20029;-40
2022/12/03 08:53:40;;;;;;;44.03;18.90;;;;;;;6.39;59.01;102356.41;5032750;28;20056;-41
2022/12/03 08:56:23;;;;;;;43.10;18.48;;;;;;;6.89;58.34;102360.78;5032175;28;20091;-42
2022/12/03 08:58:56;;;;;;;45.10;19.73;;;;;;;6.56;58.67;102362.50;5031716;28;20083;-40
2022/12/03 09:01:31;;;;;;;44.80;19.45;;;;;;;6.58;59.01;102360.88;5031091;28;20401;-41
2022/12/03 09:04:18;;;;;;;41.90;19.15;;;;;;;5.96;59.56;102365.22;5032326;28;20028;-42
2022/12/03 09:06:43;;;;;;;42.00;18.30;;;;;;;5.85;60.02;102368.88;5032075;28;20079;-42
2022/12/03 09:09:09;;;;;;;43.28;18.42;;;;;;;6.24;58.17;102365.94;5031308;28;20105;-42
2022/12/03 09:14:13;;;;;;;45.33;18.42;;;;;;;5.94;58.53;102357.38;5050099;28;20048;-43
2022/12/03 09:16:39;;;;;;;40.42;18.75;;;;;;;6.20;57.70;102364.00;5051778;28;20040;-40
2022/12/03 09:19:05;;;;;;;36.95;17.48;;;;;;;5.93;58.19;102350.41;5051518;28;20115;-40
2022/12/03 09:21:31;;;;;;;43.45;18.58;;;;;;;6.05;57.28;102356.25;5051729;28;20465;-40
2022/12/03 09:23:56;;;;;;;39.65;17.75;;;;;;;6.46;56.51;102353.31;5051665;28;20445;-42
2022/12/03 09:26:22;;;;;;;40.75;17.75;;;;;;;6.24;56.58;102362.44;5051962;28;20060;-42
2022/12/03 09:28:47;;;;;;;41.70;18.23;;;;;;;6.17;57.12;102361.22;5051804;28;20032;-38
2022/12/03 09:31:14;;;;;;;40.83;18.05;;;;;;;6.73;55.73;102358.19;5051625;28;20017;-41
2022/12/03 09:33:39;;;;;;;37.08;18.10;;;;;;;6.21;55.96;102355.44;5051929;28;20045;-42
2022/12/03 09:36:05;;;;;;;40.03;18.17;;;;;;;6.40;56.10;102359.91;5051735;28;20508;-42
2022/12/03 09:38:31;;;;;;;40.97;19.05;;;;;;;6.41;55.93;102364.25;5051832;28;20075;-43
2022/12/03 09:40:56;;;;;;;39.90;17.70;;;;;;;6.17;56.11;102362.91;5050991;28;20029;-41
2022/12/03 09:43:21;;;;;;;40.30;18.33;;;;;;;6.37;56.13;102358.03;5052419;28;20116;-41
2022/12/03 09:45:48;;;;;;;40.63;18.30;;;;;;;6.50;56.21;102341.44;5053446;28;20064;-41
2022/12/03 09:48:20;;;;;;;41.63;17.63;;;;;;;6.72;55.34;102351.22;5053265;28;20020;-43
2022/12/03 09:50:46;;;;;;;40.33;18.00;;;;;;;6.59;55.67;102351.41;5052959;28;20481;-47
2022/12/03 09:53:16;;;;;;;43.75;17.92;;;;;;;6.66;55.57;102351.78;5050842;28;20099;-38
2022/12/03 09:55:43;;;;;;;38.20;16.75;;;;;;;6.06;56.52;102346.81;5050692;28;20104;-41
2022/12/03 09:58:11;;;;;;;40.25;17.67;;;;;;;6.49;56.06;102357.78;5051200;28;20032;-41
2022/12/03 10:00:36;;;;;;;41.80;17.70;;;;;;;6.46;55.62;102352.47;5050999;28;20029;-41
2022/12/03 10:03:04;;;;;;;38.05;17.40;;;;;;;6.32;56.02;102353.41;5051322;28;20025;-38
2022/12/03 10:05:30;;;;;;;34.35;16.33;;;;;;;6.34;56.27;102347.47;5050765;28;20032;-43
2022/12/03 10:08:13;;;;;;;37.53;17.42;;;;;;;6.26;55.68;102353.97;5050356;28;20025;-43
2022/12/03 10:10:40;;;;;;;38.45;17.13;;;;;;;6.85;55.05;102348.47;5050329;28;20095;-42
2022/12/03 10:13:11;;;;;;;37.90;17.85;;;;;;;6.72;55.20;102354.69;5050836;28;20039;-43
2022/12/03 10:15:37;;;;;;;35.88;16.88;;;;;;;6.72;55.19;102357.28;5051473;28;20032;-43
2022/12/03 10:18:18;;;;;;;36.75;17.88;;;;;;;6.53;55.97;102342.47;5053686;28;20024;-40
2022/12/03 10:20:44;;;;;;;35.05;17.25;;;;;;;6.10;56.61;102357.41;5050859;28;20052;-41
2022/12/03 10:23:24;;;;;;;40.00;18.27;;;;;;;6.78;55.84;102349.84;5050492;28;20060;-44
2022/12/03 10:25:58;;;;;;;37.30;17.13;;;;;;;6.23;56.89;102345.13;5050101;28;20025;-41
2022/12/03 10:28:28;;;;;;;39.38;18.10;;;;;;;6.92;56.39;102345.38;5050409;28;20029;-41
2022/12/03 10:30:54;;;;;;;37.05;17.48;;;;;;;6.88;56.15;102340.84;5050147;28;20025;-42
2022/12/03 10:33:19;;;;;;;39.08;16.90;;;;;;;6.81;56.04;102331.88;5050296;28;20120;-41
2022/12/03 10:35:45;;;;;;;39.47;17.77;;;;;;;7.04;55.32;102332.16;5050229;28;20155;-47
2022/12/03 10:38:16;;;;;;;39.97;18.23;;;;;;;6.71;56.38;102326.13;5050323;28;20430;-40
2022/12/03 10:40:42;;;;;;;41.85;18.75;;;;;;;6.93;56.43;102331.59;5051704;28;20029;-40
2022/12/03 10:43:25;;;;;;;38.72;17.40;;;;;;;7.17;55.79;102321.59;5054618;28;20043;-41
2022/12/03 10:45:59;;;;;;;41.95;18.15;;;;;;;6.98;56.57;102329.25;5054633;28;20067;-43
2022/12/03 10:48:26;;;;;;;43.17;18.98;;;;;;;7.04;56.78;102326.97;5055098;28;20031;-40
2022/12/03 10:50:51;;;;;;;44.45;19.35;;;;;;;6.69;57.39;102323.47;5055232;28;20024;-43
2022/12/03 10:53:18;;;;;;;49.55;19.25;;;;;;;6.71;58.30;102319.22;5053431;28;20389;-41
2022/12/03 10:55:45;;;;;;;48.50;19.73;;;;;;;6.32;58.15;102314.56;5053620;28;20516;-41
2022/12/03 10:58:22;;;;;;;50.20;19.63;;;;;;;6.18;58.63;102315.50;5054055;28;20025;-40
2022/12/03 11:00:50;;;;;;;46.38;19.30;;;;;;;6.46;58.21;102304.09;5054111;28;20033;-42
2022/12/03 11:03:19;;;;;;;44.03;19.25;;;;;;;6.40;58.57;102306.38;5056200;28;20079;-43
2022/12/03 11:05:44;;;;;;;47.15;19.98;;;;;;;6.50;58.20;102308.66;5057153;28;20020;-43
2022/12/03 11:08:16;;;;;;;44.10;18.92;;;;;;;6.26;58.72;102302.16;5057129;28;20020;-40
2022/12/03 11:10:41;;;;;;;46.65;19.27;;;;;;;6.34;58.45;102300.00;5056373;28;20036;-42
2022/12/03 11:13:42;;;;;;;48.63;20.45;;;;;;;6.09;59.31;102288.34;5054024;28;20439;-43
2022/12/03 11:16:07;;;;;;;46.63;18.83;;;;;;;6.04;59.18;102294.94;5053708;28;20093;-40
2022/12/03 11:18:35;;;;;;;43.55;19.08;;;;;;;5.75;59.42;102291.53;5053841;28;20112;-42
2022/12/03 11:21:03;;;;;;;46.97;19.20;;;;;;;6.20;59.15;102283.72;5053875;28;20037;-44
2022/12/03 11:23:43;;;;;;;47.05;18.63;;;;;;;6.39;58.66;102290.75;5054228;28;20099;-39
2022/12/03 11:26:10;;;;;;;45.28;19.42;;;;;;;5.82;59.34;102279.00;5054034;28;20029;-41
2022/12/03 11:28:50;;;;;;;52.78;20.55;;;;;;;6.07;59.59;102281.28;5054087;28;20025;-43
2022/12/03 11:31:35;;;;;;;46.67;19.33;;;;;;;6.40;58.44;102282.19;5053440;28;20029;-41
2022/12/03 11:34:19;;;;;;;45.55;19.17;;;;;;;6.06;59.25;102284.66;5053627;28;20035;-43
2022/12/03 11:37:09;;;;;;;45.00;19.38;;;;;;;6.14;59.15;102270.44;5053601;28;20043;-44
2022/12/03 11:39:47;;;;;;;47.08;19.75;;;;;;;6.18;59.18;102274.06;5053172;28;20036;-43
2022/12/03 11:42:24;;;;;;;50.20;19.70;;;;;;;6.26;58.88;102271.09;5052748;28;20029;-41
2022/12/03 11:45:01;;;;;;;50.28;20.27;;;;;;;6.63;58.18;102263.53;5053489;28;20029;-41
2022/12/03 11:47:27;;;;;;;46.75;19.13;;;;;;;6.70;57.73;102263.03;5053108;28;20036;-41